Time;durP1;ratioP1;P1;durP2;ratioP2;P2;SDS_P1;SDS_P2;PMS_P1;PMS_P2;Temp;Humidity;BMP_temperature;BMP_pressure;BME280_temperature;BME280_humidity;BME280_pressure;Samples;Min_cycle;Max_cycle;Signal;HPM_P1;HPM_P2
2023/09/14 00:00:43;;;;;;;8.55;5.60;;;;;;;14.66;100.00;94343.59;5083631;28;20040;-59
2023/09/14 00:03:10;;;;;;;9.10;6.00;;;;;;;14.60;100.00;94344.56;5072301;28;20040;-59
2023/09/14 00:05:44;;;;;;;9.27;5.72;;;;;;;14.57;100.00;94341.47;5088585;28;20048;-57
2023/09/14 00:08:12;;;;;;;9.40;5.53;;;;;;;14.53;100.00;94337.97;5078773;28;20420;-58
2023/09/14 00:10:39;;;;;;;8.88;5.70;;;;;;;14.51;100.00;94339.63;5091587;28;20043;-57
2023/09/14 00:13:08;;;;;;;9.27;5.63;;;;;;;14.47;100.00;94347.97;5092128;28;20048;-58
2023/09/14 00:15:35;;;;;;;10.10;5.73;;;;;;;14.43;100.00;94340.97;5091472;28;20040;-58
2023/09/14 00:18:02;;;;;;;11.90;7.25;;;;;;;14.37;100.00;94338.75;5091972;28;20040;-58
2023/09/14 00:20:32;;;;;;;10.57;6.43;;;;;;;14.33;100.00;94348.31;5091602;28;20058;-57
2023/09/14 00:22:59;;;;;;;9.30;5.70;;;;;;;14.23;100.00;94338.28;5091927;28;20040;-58
2023/09/14 00:25:26;;;;;;;9.32;5.80;;;;;;;14.15;100.00;94341.19;5091882;28;20507;-58
2023/09/14 00:27:53;;;;;;;9.67;6.20;;;;;;;14.09;100.00;94342.91;5091375;28;21151;-58
2023/09/14 00:30:21;;;;;;;9.55;6.28;;;;;;;14.05;100.00;94344.97;5091890;28;20032;-58
2023/09/14 00:32:50;;;;;;;10.38;6.22;;;;;;;13.93;100.00;94343.66;5091235;28;21495;-58
2023/09/14 00:35:20;;;;;;;10.68;6.70;;;;;;;13.86;100.00;94348.53;5091561;28;20044;-58
2023/09/14 00:37:48;;;;;;;11.32;6.25;;;;;;;13.82;100.00;94348.59;5090982;28;20089;-58
2023/09/14 00:40:16;;;;;;;11.30;6.57;;;;;;;13.81;100.00;94338.00;5091944;28;20403;-58
2023/09/14 00:42:53;;;;;;;11.35;6.30;;;;;;;13.79;100.00;94341.97;5091048;28;20044;-58
2023/09/14 00:45:21;;;;;;;11.55;6.63;;;;;;;13.79;100.00;94343.94;5091633;28;20523;-59
2023/09/14 00:47:50;;;;;;;11.00;6.30;;;;;;;13.74;100.00;94352.72;5091054;28;20051;-58
2023/09/14 00:50:19;;;;;;;11.05;6.28;;;;;;;13.67;100.00;94348.13;5091057;28;20524;-58
2023/09/14 00:53:07;;;;;;;9.17;5.67;;;;;;;13.64;100.00;94345.44;5091217;28;20044;-58
2023/09/14 00:55:34;;;;;;;9.75;5.93;;;;;;;13.59;100.00;94353.00;5090991;28;20036;-58
2023/09/14 00:58:02;;;;;;;9.10;5.53;;;;;;;13.60;100.00;94351.00;5091236;28;20089;-58
2023/09/14 01:00:31;;;;;;;9.05;5.90;;;;;;;13.58;100.00;94353.41;5090527;28;20036;-58
2023/09/14 01:02:58;;;;;;;8.40;5.40;;;;;;;13.55;100.00;94346.00;5091100;28;20054;-58
2023/09/14 01:05:29;;;;;;;10.27;5.87;;;;;;;13.56;100.00;94344.78;5090847;28;20048;-58
2023/09/14 01:07:57;;;;;;;9.10;5.65;;;;;;;13.49;100.00;94347.72;5090617;28;21667;-58
2023/09/14 01:10:24;;;;;;;10.30;6.20;;;;;;;13.46;100.00;94348.53;5090936;28;20046;-58
2023/09/14 01:12:51;;;;;;;9.23;6.07;;;;;;;13.38;100.00;94351.44;5089364;28;20501;-58
2023/09/14 01:15:40;;;;;;;9.98;5.57;;;;;;;13.38;100.00;94350.66;5090718;28;20036;-59
2023/09/14 01:18:24;;;;;;;9.37;6.13;;;;;;;13.39;100.00;94349.47;5089638;28;20838;-58
2023/09/14 01:21:52;;;;;;;10.13;5.53;;;;;;;13.36;100.00;94348.34;5090410;28;20040;-58
2023/09/14 01:24:28;;;;;;;9.35;5.30;;;;;;;13.28;100.00;94354.38;5007401;28;20417;-58
2023/09/14 01:26:56;;;;;;;8.45;5.30;;;;;;;13.25;100.00;94350.47;5077693;28;20170;-58
2023/09/14 01:29:22;;;;;;;10.68;6.13;;;;;;;13.22;100.00;94343.06;5090578;28;20512;-58
2023/09/14 01:31:49;;;;;;;11.07;5.83;;;;;;;13.19;100.00;94358.44;5080105;28;20044;-58
2023/09/14 01:34:17;;;;;;;8.77;5.28;;;;;;;13.17;100.00;94352.59;5085265;28;20036;-58
2023/09/14 01:36:55;;;;;;;8.68;5.45;;;;;;;13.13;100.00;94346.38;5090163;28;20043;-58
2023/09/14 01:39:24;;;;;;;11.43;6.20;;;;;;;13.09;100.00;94351.16;5090145;28;20538;-58
2023/09/14 01:41:54;;;;;;;10.65;6.75;;;;;;;13.06;100.00;94351.22;5090148;28;20050;-58
2023/09/14 01:44:25;;;;;;;12.43;6.80;;;;;;;13.06;100.00;94349.25;5090434;28;20052;-58
2023/09/14 01:46:54;;;;;;;11.15;6.40;;;;;;;13.01;100.00;94357.22;5090010;28;20092;-58
2023/09/14 01:49:20;;;;;;;9.98;6.18;;;;;;;12.98;100.00;94359.63;5090388;28;20032;-58
2023/09/14 01:51:47;;;;;;;12.07;6.70;;;;;;;12.96;100.00;94353.75;5089710;28;20043;-58
2023/09/14 01:54:14;;;;;;;10.60;5.90;;;;;;;12.95;100.00;94359.69;5090085;28;20052;-58
2023/09/14 01:56:41;;;;;;;10.20;6.07;;;;;;;12.92;100.00;94363.28;5089761;28;20040;-58
2023/09/14 01:59:08;;;;;;;10.20;6.10;;;;;;;12.88;100.00;94360.59;5076777;28;20101;-58
2023/09/14 02:01:35;;;;;;;9.75;5.63;;;;;;;12.87;100.00;94353.50;5089368;28;20050;-58
2023/09/14 02:04:02;;;;;;;13.15;5.78;;;;;;;12.86;100.00;94351.97;5076811;28;20048;-58
2023/09/14 02:06:28;;;;;;;10.07;6.07;;;;;;;12.86;100.00;94359.44;5087646;28;20496;-57
2023/09/14 02:08:55;;;;;;;8.10;5.40;;;;;;;12.88;100.00;94365.31;5090027;28;20044;-58
2023/09/14 02:11:22;;;;;;;10.15;6.10;;;;;;;12.87;100.00;94364.53;5089718;28;20043;-58
2023/09/14 02:13:49;;;;;;;12.30;6.07;;;;;;;12.88;100.00;94362.56;5088619;28;20055;-58
2023/09/14 02:16:16;;;;;;;10.63;6.30;;;;;;;12.89;100.00;94361.34;5073534;28;20467;-58
2023/09/14 02:18:44;;;;;;;9.38;6.13;;;;;;;12.89;100.00;94366.88;5089522;28;20036;-58
2023/09/14 02:21:12;;;;;;;9.10;5.97;;;;;;;12.88;100.00;94360.59;5089509;28;20046;-58
2023/09/14 02:23:39;;;;;;;10.35;6.30;;;;;;;12.88;100.00;94354.31;5089266;28;20628;-58
2023/09/14 02:26:06;;;;;;;9.93;5.82;;;;;;;12.84;100.00;94362.63;5089823;28;20059;-58
2023/09/14 02:28:32;;;;;;;9.52;6.05;;;;;;;12.81;100.00;94360.69;5089182;28;20048;-57
2023/09/14 02:31:05;;;;;;;11.05;6.25;;;;;;;12.78;100.00;94364.31;5079790;28;20409;-58
2023/09/14 02:33:32;;;;;;;9.60;6.00;;;;;;;12.72;100.00;94358.50;5069339;28;20670;-58
2023/09/14 02:35:59;;;;;;;10.07;6.00;;;;;;;12.68;100.00;94360.53;5088961;28;20047;-58
2023/09/14 02:38:26;;;;;;;11.18;6.10;;;;;;;12.60;100.00;94359.09;5089534;28;20046;-58
2023/09/14 02:40:53;;;;;;;7.93;5.18;;;;;;;12.53;100.00;94359.94;5089132;28;21320;-58
2023/09/14 02:43:19;;;;;;;8.70;5.03;;;;;;;12.45;100.00;94357.75;5089579;28;20047;-58
2023/09/14 02:45:46;;;;;;;9.80;5.50;;;;;;;12.27;100.00;94363.50;5088696;28;20048;-58
2023/09/14 02:48:13;;;;;;;10.05;5.30;;;;;;;12.04;100.00;94369.75;5089338;28;20048;-58
2023/09/14 02:50:40;;;;;;;8.90;5.30;;;;;;;12.15;100.00;94370.34;5088241;28;20497;-58
2023/09/14 02:53:06;;;;;;;9.48;5.53;;;;;;;12.22;100.00;94369.50;5088607;28;20048;-58
2023/09/14 02:55:34;;;;;;;9.13;5.60;;;;;;;12.24;100.00;94369.84;5088376;28;20036;-58
2023/09/14 02:58:06;;;;;;;9.97;6.03;;;;;;;12.24;100.00;94365.13;5089234;28;20538;-58
2023/09/14 03:00:33;;;;;;;12.88;7.95;;;;;;;12.22;100.00;94364.75;5088912;28;20040;-58
2023/09/14 03:02:59;;;;;;;21.85;11.57;;;;;;;12.23;100.00;94371.03;5089439;28;20105;-58
2023/09/14 03:05:26;;;;;;;11.30;6.13;;;;;;;12.14;100.00;94366.84;5088911;28;20122;-58
2023/09/14 03:07:53;;;;;;;10.30;5.88;;;;;;;12.12;100.00;94365.69;5088658;28;20494;-58
2023/09/14 03:10:19;;;;;;;8.90;5.60;;;;;;;12.11;100.00;94375.13;5089268;28;20054;-58
2023/09/14 03:12:46;;;;;;;9.68;5.30;;;;;;;11.87;100.00;94377.00;5088315;28;20040;-57
2023/09/14 03:15:13;;;;;;;9.50;5.72;;;;;;;11.93;100.00;94370.66;5089291;28;20047;-58
2023/09/14 03:17:40;;;;;;;9.68;6.00;;;;;;;11.98;100.00;94372.94;5088624;28;20511;-58
2023/09/14 03:20:07;;;;;;;10.32;6.07;;;;;;;11.99;100.00;94371.75;5089038;28;20616;-58
2023/09/14 03:22:34;;;;;;;9.70;6.20;;;;;;;11.98;100.00;94370.19;5088412;28;20404;-58
2023/09/14 03:25:01;;;;;;;12.50;7.18;;;;;;;11.98;100.00;94378.44;5089296;28;20476;-58
2023/09/14 03:27:28;;;;;;;15.00;8.15;;;;;;;11.79;100.00;94379.84;5089070;28;20512;-58
2023/09/14 03:29:54;;;;;;;13.15;8.02;;;;;;;11.82;100.00;94385.72;5088238;28;20542;-58
2023/09/14 03:32:21;;;;;;;12.38;7.53;;;;;;;11.87;100.00;94386.03;5089039;28;20040;-58
2023/09/14 03:34:48;;;;;;;11.00;7.00;;;;;;;11.98;100.00;94389.44;5088438;28;20070;-58
2023/09/14 03:37:15;;;;;;;14.82;7.00;;;;;;;12.10;100.00;94384.59;5088701;28;20036;-58
2023/09/14 03:39:45;;;;;;;11.63;7.10;;;;;;;12.18;100.00;94381.31;5079969;28;20069;-58
2023/09/14 03:42:12;;;;;;;13.88;7.60;;;;;;;12.19;100.00;94379.34;5068985;28;20101;-58
2023/09/14 03:44:39;;;;;;;11.65;7.25;;;;;;;12.15;100.00;94378.59;5085554;28;20047;-58
2023/09/14 03:47:06;;;;;;;11.63;7.37;;;;;;;12.11;100.00;94383.38;5088680;28;20055;-58
2023/09/14 03:49:32;;;;;;;14.40;8.02;;;;;;;11.92;100.00;94377.34;5088136;28;20042;-57
2023/09/14 03:51:59;;;;;;;13.45;7.68;;;;;;;11.96;100.00;94380.06;5088743;28;20047;-58
2023/09/14 03:54:26;;;;;;;13.32;7.47;;;;;;;11.99;100.00;94379.22;5088762;28;20471;-58
2023/09/14 03:56:54;;;;;;;12.07;7.50;;;;;;;11.94;100.00;94377.72;5088183;28;20040;-57
2023/09/14 03:59:21;;;;;;;10.90;6.70;;;;;;;11.88;100.00;94384.84;5088615;28;20055;-58
2023/09/14 04:01:48;;;;;;;11.93;7.07;;;;;;;11.88;100.00;94376.56;5088483;28;21479;-58
2023/09/14 04:04:15;;;;;;;11.77;6.40;;;;;;;11.67;100.00;94382.34;5091182;28;20051;-58
2023/09/14 04:06:42;;;;;;;12.02;7.65;;;;;;;11.70;100.00;94381.53;5091750;28;20430;-58
2023/09/14 04:09:08;;;;;;;11.68;7.38;;;;;;;11.73;100.00;94377.94;5094791;28;20091;-58
2023/09/14 04:11:35;;;;;;;13.77;8.30;;;;;;;11.70;100.00;94371.31;5099585;28;20044;-57
2023/09/14 04:14:02;;;;;;;16.23;9.73;;;;;;;11.68;100.00;94381.94;5092198;28;20430;-58
2023/09/14 04:16:30;;;;;;;18.25;10.93;;;;;;;11.77;100.00;94384.19;5091631;28;20400;-57
2023/09/14 04:19:02;;;;;;;18.85;10.30;;;;;;;11.90;100.00;94390.72;5092043;28;20496;-58
2023/09/14 04:21:29;;;;;;;16.13;9.82;;;;;;;12.07;100.00;94388.94;5091343;28;20105;-57
2023/09/14 04:23:56;;;;;;;20.57;10.73;;;;;;;12.19;100.00;94390.34;5091744;28;20044;-58
2023/09/14 04:26:22;;;;;;;24.02;11.05;;;;;;;12.26;100.00;94387.50;5091859;28;20059;-58
2023/09/14 04:28:49;;;;;;;50.15;12.90;;;;;;;12.28;100.00;94381.59;5091400;28;20054;-58
2023/09/14 04:31:16;;;;;;;86.50;12.88;;;;;;;12.27;100.00;94383.53;5090318;28;20047;-58
2023/09/14 04:33:43;;;;;;;45.63;10.93;;;;;;;12.24;100.00;94384.38;5091217;28;20046;-58
2023/09/14 04:36:10;;;;;;;78.53;11.40;;;;;;;12.25;100.00;94391.44;5091275;28;20040;-60
2023/09/14 04:38:36;;;;;;;42.95;11.13;;;;;;;12.24;100.00;94398.16;5090957;28;20044;-59
2023/09/14 04:41:04;;;;;;;140.02;14.32;;;;;;;12.14;100.00;94396.31;5071825;28;20075;-57
2023/09/14 04:43:32;;;;;;;92.35;11.55;;;;;;;12.28;100.00;94395.34;5078554;28;20040;-58
2023/09/14 04:46:04;;;;;;;37.92;11.15;;;;;;;12.35;100.00;94409.00;5091295;28;20040;-58
2023/09/14 04:48:31;;;;;;;46.20;11.00;;;;;;;12.37;100.00;94410.16;5091153;28;20152;-58
2023/09/14 04:50:59;;;;;;;27.33;11.98;;;;;;;12.42;100.00;94408.13;5091140;28;20052;-59
2023/09/14 04:53:27;;;;;;;41.72;10.88;;;;;;;12.40;100.00;94408.53;5091392;28;20046;-58
2023/09/14 04:55:53;;;;;;;125.03;12.10;;;;;;;12.30;100.00;94409.47;5089921;28;20900;-58
2023/09/14 04:58:20;;;;;;;36.58;11.77;;;;;;;12.35;100.00;94409.00;5090790;28;20040;-58
2023/09/14 05:00:51;;;;;;;27.13;13.17;;;;;;;12.42;100.00;94416.38;5094694;28;20044;-58
2023/09/14 05:03:19;;;;;;;23.25;12.60;;;;;;;12.47;100.00;94407.66;5103465;28;20046;-58
2023/09/14 05:05:51;;;;;;;22.25;11.35;;;;;;;12.45;100.00;94412.78;5078340;28;20060;-58
2023/09/14 05:08:18;;;;;;;21.15;10.50;;;;;;;12.45;100.00;94410.03;5102284;28;20124;-58
2023/09/14 05:10:44;;;;;;;20.52;11.07;;;;;;;12.60;100.00;94408.66;5082987;28;20044;-58
2023/09/14 05:13:11;;;;;;;21.63;10.47;;;;;;;12.56;100.00;94410.66;5090600;28;20040;-58
2023/09/14 05:15:38;;;;;;;20.05;11.60;;;;;;;12.66;100.00;94408.97;5089233;28;20408;-58
2023/09/14 05:18:05;;;;;;;25.23;12.23;;;;;;;12.77;100.00;94406.78;5090658;28;20048;-58
2023/09/14 05:20:32;;;;;;;22.63;11.40;;;;;;;12.78;100.00;94408.38;5090411;28;20032;-58
2023/09/14 05:22:59;;;;;;;35.50;12.85;;;;;;;12.84;100.00;94403.13;5090603;28;20046;-58
2023/09/14 05:25:27;;;;;;;39.77;11.30;;;;;;;12.77;100.00;94399.31;5090434;28;20028;-59
2023/09/14 05:27:54;;;;;;;20.70;10.73;;;;;;;12.86;100.00;94403.50;5089456;28;20798;-59
2023/09/14 05:30:23;;;;;;;22.98;10.57;;;;;;;12.83;100.00;94405.13;5090407;28;20073;-59
2023/09/14 05:32:49;;;;;;;21.67;10.32;;;;;;;12.84;100.00;94403.94;5090204;28;20425;-59
2023/09/14 05:35:18;;;;;;;23.27;11.25;;;;;;;12.85;100.00;94401.97;5090411;28;20396;-59
2023/09/14 05:37:45;;;;;;;20.20;10.33;;;;;;;12.90;100.00;94404.25;5089708;28;20500;-59
2023/09/14 05:40:12;;;;;;;21.77;9.90;;;;;;;12.98;100.00;94406.47;5089049;28;20489;-59
2023/09/14 05:42:39;;;;;;;17.98;9.50;;;;;;;13.12;100.00;94402.69;5089701;28;20116;-59
2023/09/14 05:45:07;;;;;;;23.02;10.70;;;;;;;13.31;100.00;94409.47;5090451;28;20040;-59
2023/09/14 05:47:36;;;;;;;21.50;10.32;;;;;;;13.49;100.00;94400.88;5089587;28;20051;-59
2023/09/14 05:50:03;;;;;;;20.20;9.90;;;;;;;13.58;100.00;94400.31;5090095;28;20048;-59
2023/09/14 05:52:31;;;;;;;23.27;10.82;;;;;;;13.47;100.00;94405.25;5089492;28;20096;-59
2023/09/14 05:54:58;;;;;;;26.65;12.10;;;;;;;13.55;100.00;94404.69;5090067;28;20052;-59
2023/09/14 05:57:24;;;;;;;25.85;10.88;;;;;;;13.81;100.00;94404.22;5089793;28;20043;-59
2023/09/14 05:59:51;;;;;;;24.90;11.30;;;;;;;13.88;100.00;94401.31;5088535;28;20055;-59
2023/09/14 06:02:18;;;;;;;33.07;11.70;;;;;;;13.90;100.00;94407.94;5070908;28;20051;-59
2023/09/14 06:04:47;;;;;;;24.65;11.55;;;;;;;14.25;100.00;94405.66;5078251;28;20044;-59
2023/09/14 06:07:14;;;;;;;27.27;11.07;;;;;;;14.35;100.00;94412.16;5088590;28;20048;-59
2023/09/14 06:09:41;;;;;;;22.25;11.43;;;;;;;14.49;100.00;94406.31;5089515;28;20111;-59
2023/09/14 06:12:07;;;;;;;30.90;12.02;;;;;;;14.43;100.00;94418.28;5089689;28;20054;-59
2023/09/14 06:14:36;;;;;;;22.43;11.70;;;;;;;14.47;100.00;94414.25;5089458;28;20479;-57
2023/09/14 06:17:03;;;;;;;26.42;11.30;;;;;;;15.00;100.00;94411.47;5085853;28;20525;-57
2023/09/14 06:19:30;;;;;;;22.33;10.57;;;;;;;14.69;100.00;94411.81;5088946;28;20405;-57
2023/09/14 06:21:58;;;;;;;20.25;10.45;;;;;;;15.36;100.00;94407.81;5087887;28;20046;-57
2023/09/14 06:24:25;;;;;;;23.42;10.32;;;;;;;15.46;100.00;94409.53;5089024;28;20048;-58
2023/09/14 06:26:51;;;;;;;30.77;11.20;;;;;;;15.29;100.00;94399.69;5088454;28;20047;-58
2023/09/14 06:29:18;;;;;;;31.90;10.32;;;;;;;15.48;100.00;94392.50;5089716;28;20481;-57
2023/09/14 06:31:45;;;;;;;26.00;10.57;;;;;;;15.65;100.00;94401.53;5095757;28;20101;-58
2023/09/14 06:34:12;;;;;;;28.25;10.98;;;;;;;15.57;100.00;94398.97;5101607;28;20507;-58
2023/09/14 06:36:39;;;;;;;26.60;12.20;;;;;;;15.35;100.00;94398.75;5100897;28;20525;-59
2023/09/14 06:39:06;;;;;;;19.13;10.93;;;;;;;15.46;100.00;94401.25;5091164;28;20054;-59
2023/09/14 06:41:32;;;;;;;19.40;10.75;;;;;;;15.82;100.00;94405.06;5091843;28;20032;-58
2023/09/14 06:43:59;;;;;;;19.08;10.57;;;;;;;16.04;100.00;94405.25;5099755;28;20396;-58
2023/09/14 06:46:26;;;;;;;17.45;9.98;;;;;;;16.02;100.00;94402.91;5088487;28;20466;-58
2023/09/14 06:48:53;;;;;;;20.90;11.10;;;;;;;15.18;100.00;94408.28;5088887;28;20073;-59
2023/09/14 06:51:19;;;;;;;20.37;10.80;;;;;;;15.70;100.00;94406.53;5089108;28;20051;-58
2023/09/14 06:53:46;;;;;;;20.17;10.80;;;;;;;16.04;100.00;94400.47;5088896;28;20051;-58
2023/09/14 06:56:15;;;;;;;17.67;9.85;;;;;;;16.43;100.00;94401.31;5089329;28;20032;-59
2023/09/14 06:58:41;;;;;;;19.33;10.85;;;;;;;16.47;100.00;94407.53;5088950;28;20051;-58
2023/09/14 07:01:08;;;;;;;19.02;9.63;;;;;;;16.75;100.00;94405.88;5083301;28;20036;-58
2023/09/14 07:03:35;;;;;;;18.33;10.13;;;;;;;16.74;100.00;94407.09;5068617;28;20044;-58
2023/09/14 07:06:02;;;;;;;21.83;11.35;;;;;;;16.63;100.00;94409.41;5088423;28;20119;-58
2023/09/14 07:08:29;;;;;;;20.35;11.30;;;;;;;16.60;100.00;94413.09;5088814;28;20046;-58
2023/09/14 07:10:56;;;;;;;21.27;11.20;;;;;;;16.24;100.00;94413.34;5089060;28;20044;-58
2023/09/14 07:13:23;;;;;;;21.73;11.93;;;;;;;16.61;100.00;94405.56;5088945;28;20044;-58
2023/09/14 07:15:50;;;;;;;21.17;11.90;;;;;;;16.78;100.00;94410.53;5088189;28;20043;-59
2023/09/14 07:18:28;;;;;;;25.80;13.18;;;;;;;15.43;100.00;94413.16;5088879;28;20050;-59
2023/09/14 07:20:56;;;;;;;23.08;12.23;;;;;;;16.51;100.00;94410.19;5087726;28;20182;-58
2023/09/14 07:23:23;;;;;;;23.80;13.32;;;;;;;15.92;100.00;94409.53;5089322;28;20046;-58
2023/09/14 07:25:50;;;;;;;24.15;12.90;;;;;;;16.12;100.00;94412.91;5088160;28;20036;-58
2023/09/14 07:28:18;;;;;;;22.60;12.37;;;;;;;15.75;100.00;94415.13;5088931;28;20052;-58
2023/09/14 07:30:47;;;;;;;22.27;12.88;;;;;;;15.97;100.00;94417.28;5088394;28;20033;-59
2023/09/14 07:33:15;;;;;;;19.58;11.68;;;;;;;17.70;100.00;94402.38;5089190;28;20046;-59
2023/09/14 07:35:42;;;;;;;18.83;11.20;;;;;;;19.31;100.00;94409.44;5088499;28;20056;-59
2023/09/14 07:38:12;;;;;;;19.70;11.80;;;;;;;18.32;100.00;94412.88;5089623;28;20052;-59
2023/09/14 07:40:39;;;;;;;19.20;11.43;;;;;;;19.31;100.00;94403.13;5092302;28;20104;-59
2023/09/14 07:43:06;;;;;;;15.85;10.48;;;;;;;19.73;100.00;94403.34;5092019;28;20050;-59
2023/09/14 07:45:33;;;;;;;20.42;12.95;;;;;;;18.85;100.00;94405.75;5092251;28;20044;-59
2023/09/14 07:48:01;;;;;;;16.77;11.63;;;;;;;18.07;100.00;94413.81;5092507;28;20050;-59
2023/09/14 07:50:28;;;;;;;19.58;12.20;;;;;;;18.79;100.00;94402.78;5092118;28;20097;-59
2023/09/14 07:52:55;;;;;;;17.53;12.23;;;;;;;18.56;100.00;94413.16;5092548;28;20040;-60
2023/09/14 07:55:23;;;;;;;16.02;10.43;;;;;;;19.72;100.00;94412.94;5092440;28;20404;-61
2023/09/14 07:57:50;;;;;;;18.30;11.88;;;;;;;20.80;100.00;94412.97;5091732;28;20044;-60
2023/09/14 08:00:17;;;;;;;16.85;11.55;;;;;;;21.70;100.00;94421.38;5088136;28;20088;-60
2023/09/14 08:02:43;;;;;;;14.43;10.10;;;;;;;21.81;100.00;94425.63;5071932;28;20046;-60
2023/09/14 08:05:10;;;;;;;13.97;8.97;;;;;;;22.11;100.00;94413.31;5084655;28;20044;-60
2023/09/14 08:07:37;;;;;;;13.07;9.25;;;;;;;23.99;100.00;94414.97;5091498;28;20109;-60
2023/09/14 08:10:05;;;;;;;13.18;9.77;;;;;;;24.83;90.10;94415.88;5092472;28;20484;-61
2023/09/14 08:12:32;;;;;;;13.38;10.25;;;;;;;22.18;100.00;94417.75;5091690;28;20042;-60
2023/09/14 08:14:58;;;;;;;14.23;10.93;;;;;;;21.07;100.00;94415.66;5092297;28;20439;-60
2023/09/14 08:17:27;;;;;;;12.97;10.27;;;;;;;23.84;93.04;94410.19;5092032;28;20036;-60
2023/09/14 08:19:54;;;;;;;14.48;11.32;;;;;;;22.03;100.00;94417.69;5091168;28;20866;-60
2023/09/14 08:22:23;;;;;;;14.70;11.35;;;;;;;21.83;100.00;94415.53;5092000;28;20055;-60
2023/09/14 08:24:50;;;;;;;15.07;11.27;;;;;;;22.47;100.00;94408.63;5090109;28;20047;-60
2023/09/14 08:27:17;;;;;;;14.10;11.30;;;;;;;22.49;100.00;94410.94;5091788;28;20111;-60
2023/09/14 08:29:44;;;;;;;14.83;11.33;;;;;;;21.86;100.00;94416.59;5091500;28;20043;-60
2023/09/14 08:32:11;;;;;;;12.23;9.15;;;;;;;24.96;93.50;94401.41;5091647;28;20048;-60
2023/09/14 08:34:38;;;;;;;14.43;10.73;;;;;;;22.64;100.00;94414.53;5089918;28;20032;-60
2023/09/14 08:37:10;;;;;;;13.60;9.80;;;;;;;24.94;88.38;94408.81;5091627;28;20040;-60
2023/09/14 08:39:38;;;;;;;13.20;9.40;;;;;;;26.06;84.59;94411.56;5091243;28;20032;-60
2023/09/14 08:42:05;;;;;;;10.77;8.33;;;;;;;25.85;84.91;94410.94;5091430;28;20046;-60
2023/09/14 08:44:33;;;;;;;12.18;9.02;;;;;;;23.66;93.85;94407.66;5091122;28;20036;-59
2023/09/14 08:47:02;;;;;;;12.40;10.23;;;;;;;21.45;100.00;94416.25;5091682;28;20052;-60
2023/09/14 08:49:31;;;;;;;12.75;8.93;;;;;;;21.30;100.00;94413.38;5090988;28;20073;-59
2023/09/14 08:52:01;;;;;;;13.90;9.80;;;;;;;21.34;100.00;94419.53;5091566;28;20036;-60
2023/09/14 08:54:28;;;;;;;14.30;10.87;;;;;;;19.64;100.00;94411.69;5078654;28;20042;-60
2023/09/14 08:56:56;;;;;;;14.45;10.45;;;;;;;18.83;100.00;94422.88;5089893;28;20559;-59
2023/09/14 08:59:25;;;;;;;15.48;8.95;;;;;;;20.79;100.00;94417.78;5089836;28;20048;-59
2023/09/14 09:01:52;;;;;;;13.32;8.25;;;;;;;23.90;100.00;94413.88;5090468;28;20052;-59
2023/09/14 09:04:19;;;;;;;11.43;8.63;;;;;;;22.69;100.00;94415.88;5089921;28;20044;-60
2023/09/14 09:06:47;;;;;;;11.27;8.43;;;;;;;22.38;100.00;94410.75;5090327;28;20044;-59
2023/09/14 09:09:18;;;;;;;12.77;8.55;;;;;;;21.87;100.00;94412.53;5090992;28;20503;-59
2023/09/14 09:11:46;;;;;;;16.30;11.13;;;;;;;19.24;100.00;94415.31;5090524;28;20040;-59
2023/09/14 09:14:14;;;;;;;14.88;9.82;;;;;;;19.88;100.00;94413.88;5091032;28;20401;-59
2023/09/14 09:16:40;;;;;;;12.60;8.43;;;;;;;21.08;100.00;94410.84;5088684;28;20100;-60
2023/09/14 09:19:09;;;;;;;15.57;9.47;;;;;;;20.81;100.00;94411.75;5091156;28;20052;-60
2023/09/14 09:21:37;;;;;;;12.57;8.90;;;;;;;20.02;100.00;94410.47;5090221;28;20070;-59
2023/09/14 09:24:05;;;;;;;14.02;9.30;;;;;;;20.41;100.00;94418.31;5090500;28;20051;-59
2023/09/14 09:26:37;;;;;;;10.73;7.93;;;;;;;20.58;100.00;94410.38;5090316;28;20046;-59
2023/09/14 09:29:18;;;;;;;13.18;8.63;;;;;;;20.19;100.00;94407.38;5079652;28;20049;-59
2023/09/14 09:31:47;;;;;;;14.17;9.00;;;;;;;20.50;100.00;94416.28;5083686;28;20124;-59
2023/09/14 09:34:14;;;;;;;14.10;9.55;;;;;;;20.60;100.00;94416.28;5084544;28;20036;-59
2023/09/14 09:36:41;;;;;;;12.00;8.07;;;;;;;20.92;100.00;94407.19;5089791;28;20091;-58
2023/09/14 09:39:11;;;;;;;13.10;8.20;;;;;;;21.16;100.00;94406.44;5090335;28;20390;-59
2023/09/14 09:41:38;;;;;;;12.75;8.65;;;;;;;20.55;100.00;94412.09;5090130;28;20066;-58
2023/09/14 09:44:06;;;;;;;17.87;9.13;;;;;;;19.41;100.00;94406.69;5090789;28;20044;-59
2023/09/14 09:46:35;;;;;;;14.55;8.68;;;;;;;19.44;100.00;94414.13;5090252;28;20046;-58
2023/09/14 09:49:04;;;;;;;14.57;9.75;;;;;;;18.45;100.00;94407.25;5090033;28;20042;-59
2023/09/14 09:51:34;;;;;;;17.48;10.40;;;;;;;18.36;100.00;94407.97;5089853;28;20048;-58
2023/09/14 09:54:06;;;;;;;13.77;9.15;;;;;;;19.05;100.00;94400.56;5090485;28;20044;-58
2023/09/14 09:56:34;;;;;;;13.83;9.57;;;;;;;18.99;100.00;94405.19;5089839;28;20071;-58
2023/09/14 09:59:03;;;;;;;13.63;9.43;;;;;;;19.08;100.00;94399.66;5089754;28;20044;-59
2023/09/14 10:01:30;;;;;;;14.07;9.30;;;;;;;19.52;100.00;94407.03;5077577;28;20044;-58
2023/09/14 10:03:59;;;;;;;14.40;9.57;;;;;;;18.12;100.00;94404.13;5088295;28;20501;-58
2023/09/14 10:06:26;;;;;;;13.32;8.95;;;;;;;18.34;100.00;94401.31;5089640;28;20052;-59
2023/09/14 10:08:56;;;;;;;15.47;10.90;;;;;;;18.12;100.00;94395.78;5089481;28;20054;-58
2023/09/14 10:11:24;;;;;;;15.70;10.18;;;;;;;18.89;100.00;94395.25;5089798;28;20036;-59
2023/09/14 10:13:52;;;;;;;15.80;9.45;;;;;;;18.62;100.00;94404.25;5089229;28;20048;-59
2023/09/14 10:16:25;;;;;;;14.43;9.50;;;;;;;18.99;100.00;94396.84;5089491;28;20353;-59
2023/09/14 10:18:54;;;;;;;14.32;10.18;;;;;;;18.99;100.00;94398.84;5076008;28;20054;-58
2023/09/14 10:21:22;;;;;;;14.03;9.80;;;;;;;19.03;100.00;94396.72;5089486;28;20052;-59
2023/09/14 10:23:51;;;;;;;14.35;9.32;;;;;;;19.00;100.00;94389.28;5089453;28;20085;-59
2023/09/14 10:26:18;;;;;;;13.82;9.95;;;;;;;18.87;100.00;94386.59;5089647;28;20055;-59
2023/09/14 10:28:46;;;;;;;14.63;9.43;;;;;;;19.39;100.00;94390.44;5088014;28;20507;-59
2023/09/14 10:31:14;;;;;;;13.00;8.80;;;;;;;18.84;100.00;94387.53;5078541;28;20036;-59
2023/09/14 10:33:49;;;;;;;12.97;8.57;;;;;;;19.62;100.00;94382.72;5068749;28;20058;-58
2023/09/14 10:36:16;;;;;;;11.98;9.15;;;;;;;19.37;100.00;94387.34;5089468;28;20066;-59
2023/09/14 10:38:47;;;;;;;11.30;8.48;;;;;;;19.80;100.00;94385.56;5088927;28;20044;-59
2023/09/14 10:41:14;;;;;;;16.90;9.00;;;;;;;19.34;100.00;94382.72;5089290;28;20291;-59
2023/09/14 10:43:41;;;;;;;13.35;9.77;;;;;;;18.94;100.00;94375.97;5088854;28;20331;-60
2023/09/14 10:46:24;;;;;;;12.90;9.10;;;;;;;18.84;100.00;94374.41;5089525;28;20040;-59
2023/09/14 10:48:53;;;;;;;10.57;7.10;;;;;;;20.03;100.00;94373.00;5088914;28;20058;-59
2023/09/14 10:51:22;;;;;;;10.10;7.05;;;;;;;20.53;100.00;94373.53;5089058;28;20382;-59
2023/09/14 10:53:50;;;;;;;9.27;6.43;;;;;;;20.44;100.00;94370.75;5088758;28;20382;-59
2023/09/14 10:56:31;;;;;;;8.27;5.53;;;;;;;20.75;100.00;94367.75;5089334;28;20493;-59
2023/09/14 10:59:05;;;;;;;7.77;5.43;;;;;;;20.46;100.00;94376.63;5067983;28;20687;-59
2023/09/14 11:01:31;;;;;;;8.30;5.20;;;;;;;20.49;100.00;94366.56;5068432;28;20052;-59
2023/09/14 11:04:18;;;;;;;8.75;5.50;;;;;;;20.69;100.00;94357.69;5068995;28;20051;-59
2023/09/14 11:06:48;;;;;;;8.55;5.30;;;;;;;20.73;100.00;94361.09;5068070;28;20040;-59
2023/09/14 11:09:18;;;;;;;8.27;4.70;;;;;;;19.42;100.00;94360.91;5068861;28;20052;-59
2023/09/14 11:11:47;;;;;;;7.30;4.40;;;;;;;19.81;100.00;94359.25;5068385;28;20044;-59
2023/09/14 11:14:17;;;;;;;6.10;4.18;;;;;;;20.43;100.00;94360.09;5071863;28;20055;-59
2023/09/14 11:16:49;;;;;;;5.93;3.80;;;;;;;20.57;100.00;94347.50;5072866;28;20420;-59
2023/09/14 11:19:31;;;;;;;7.20;4.05;;;;;;;20.18;100.00;94358.44;5072745;28;20051;-59
2023/09/14 11:22:03;;;;;;;7.97;4.22;;;;;;;20.12;100.00;94350.72;5072106;28;20501;-59